sensor_id;sensor_type;location;lat;lon;timestamp;P1;durP1;ratioP1;P2;durP2;ratioP2
41233;SDS011;26968;42.686;23.352;2023-03-14T00:00:03;16.42;;;7.72;;
41233;SDS011;26968;42.686;23.352;2023-03-14T00:02:30;18.77;;;7.55;;
41233;SDS011;26968;42.686;23.352;2023-03-14T00:04:56;19.55;;;7.70;;
41233;SDS011;26968;42.686;23.352;2023-03-14T00:07:21;15.00;;;8.07;;
41233;SDS011;26968;42.686;23.352;2023-03-14T00:09:49;14.55;;;7.30;;
41233;SDS011;26968;42.686;23.352;2023-03-14T00:12:15;13.43;;;7.43;;
41233;SDS011;26968;42.686;23.352;2023-03-14T00:14:40;14.25;;;7.22;;
41233;SDS011;26968;42.686;23.352;2023-03-14T00:17:07;14.20;;;7.10;;
41233;SDS011;26968;42.686;23.352;2023-03-14T00:19:33;12.95;;;7.57;;
41233;SDS011;26968;42.686;23.352;2023-03-14T00:21:58;15.98;;;6.95;;
41233;SDS011;26968;42.686;23.352;2023-03-14T00:24:24;21.98;;;8.13;;
41233;SDS011;26968;42.686;23.352;2023-03-14T00:26:49;15.52;;;7.70;;
41233;SDS011;26968;42.686;23.352;2023-03-14T00:29:15;14.10;;;7.38;;
41233;SDS011;26968;42.686;23.352;2023-03-14T00:31:40;13.75;;;6.50;;
41233;SDS011;26968;42.686;23.352;2023-03-14T00:34:05;12.43;;;6.40;;
41233;SDS011;26968;42.686;23.352;2023-03-14T00:36:31;10.85;;;6.50;;
41233;SDS011;26968;42.686;23.352;2023-03-14T00:38:56;11.82;;;6.32;;
41233;SDS011;26968;42.686;23.352;2023-03-14T00:41:22;12.27;;;6.00;;
41233;SDS011;26968;42.686;23.352;2023-03-14T00:43:49;10.25;;;5.38;;
41233;SDS011;26968;42.686;23.352;2023-03-14T00:46:15;12.90;;;6.25;;
41233;SDS011;26968;42.686;23.352;2023-03-14T00:48:41;11.52;;;6.55;;
41233;SDS011;26968;42.686;23.352;2023-03-14T00:51:07;14.15;;;6.20;;
41233;SDS011;26968;42.686;23.352;2023-03-14T00:53:37;15.52;;;6.80;;
41233;SDS011;26968;42.686;23.352;2023-03-14T00:56:04;13.63;;;7.07;;
41233;SDS011;26968;42.686;23.352;2023-03-14T00:58:31;14.23;;;6.53;;
41233;SDS011;26968;42.686;23.352;2023-03-14T01:00:57;15.80;;;6.45;;
41233;SDS011;26968;42.686;23.352;2023-03-14T01:03:22;11.13;;;6.28;;
41233;SDS011;26968;42.686;23.352;2023-03-14T01:05:49;10.82;;;5.90;;
41233;SDS011;26968;42.686;23.352;2023-03-14T01:08:14;11.05;;;6.25;;
41233;SDS011;26968;42.686;23.352;2023-03-14T01:10:40;10.70;;;5.60;;
41233;SDS011;26968;42.686;23.352;2023-03-14T01:13:06;11.88;;;5.95;;
41233;SDS011;26968;42.686;23.352;2023-03-14T01:15:33;8.68;;;5.43;;
41233;SDS011;26968;42.686;23.352;2023-03-14T01:17:59;14.90;;;5.63;;
41233;SDS011;26968;42.686;23.352;2023-03-14T01:20:24;12.65;;;5.68;;
41233;SDS011;26968;42.686;23.352;2023-03-14T01:22:50;11.80;;;5.95;;
41233;SDS011;26968;42.686;23.352;2023-03-14T01:25:16;10.50;;;6.07;;
41233;SDS011;26968;42.686;23.352;2023-03-14T01:27:42;12.77;;;6.75;;
41233;SDS011;26968;42.686;23.352;2023-03-14T01:30:08;10.20;;;6.53;;
41233;SDS011;26968;42.686;23.352;2023-03-14T01:32:35;12.38;;;6.28;;
41233;SDS011;26968;42.686;23.352;2023-03-14T01:35:00;12.13;;;6.85;;
41233;SDS011;26968;42.686;23.352;2023-03-14T01:37:26;14.73;;;7.18;;
41233;SDS011;26968;42.686;23.352;2023-03-14T01:39:51;16.23;;;7.40;;
41233;SDS011;26968;42.686;23.352;2023-03-14T01:42:16;15.30;;;7.65;;
41233;SDS011;26968;42.686;23.352;2023-03-14T01:47:18;18.58;;;7.35;;
41233;SDS011;26968;42.686;23.352;2023-03-14T01:49:44;17.38;;;6.88;;
41233;SDS011;26968;42.686;23.352;2023-03-14T01:52:14;17.10;;;7.13;;
41233;SDS011;26968;42.686;23.352;2023-03-14T01:54:55;13.80;;;6.78;;
41233;SDS011;26968;42.686;23.352;2023-03-14T01:57:35;13.10;;;8.50;;
41233;SDS011;26968;42.686;23.352;2023-03-14T02:00:10;17.25;;;6.90;;
41233;SDS011;26968;42.686;23.352;2023-03-14T02:02:48;12.38;;;6.40;;
41233;SDS011;26968;42.686;23.352;2023-03-14T02:07:55;15.68;;;7.20;;
41233;SDS011;26968;42.686;23.352;2023-03-14T02:10:25;16.30;;;6.90;;
41233;SDS011;26968;42.686;23.352;2023-03-14T02:12:55;16.35;;;7.38;;
41233;SDS011;26968;42.686;23.352;2023-03-14T02:15:21;13.55;;;7.57;;
41233;SDS011;26968;42.686;23.352;2023-03-14T02:17:48;13.85;;;7.75;;
41233;SDS011;26968;42.686;23.352;2023-03-14T02:20:17;14.88;;;8.10;;
41233;SDS011;26968;42.686;23.352;2023-03-14T02:23:06;17.77;;;7.88;;
41233;SDS011;26968;42.686;23.352;2023-03-14T02:28:39;13.40;;;6.60;;
41233;SDS011;26968;42.686;23.352;2023-03-14T02:31:05;18.98;;;7.57;;
41233;SDS011;26968;42.686;23.352;2023-03-14T02:33:31;13.95;;;7.55;;
41233;SDS011;26968;42.686;23.352;2023-03-14T02:35:57;14.50;;;7.25;;
41233;SDS011;26968;42.686;23.352;2023-03-14T02:38:27;15.02;;;7.18;;
41233;SDS011;26968;42.686;23.352;2023-03-14T02:41:14;20.35;;;7.57;;
41233;SDS011;26968;42.686;23.352;2023-03-14T02:43:40;16.70;;;9.40;;
41233;SDS011;26968;42.686;23.352;2023-03-14T02:46:07;16.70;;;8.82;;
41233;SDS011;26968;42.686;23.352;2023-03-14T02:48:39;23.17;;;8.13;;
41233;SDS011;26968;42.686;23.352;2023-03-14T02:53:35;17.65;;;8.48;;
41233;SDS011;26968;42.686;23.352;2023-03-14T02:56:02;19.48;;;8.48;;
41233;SDS011;26968;42.686;23.352;2023-03-14T02:58:28;19.42;;;8.75;;
41233;SDS011;26968;42.686;23.352;2023-03-14T03:00:53;21.42;;;9.95;;
41233;SDS011;26968;42.686;23.352;2023-03-14T03:03:19;20.40;;;9.73;;
41233;SDS011;26968;42.686;23.352;2023-03-14T03:05:47;16.80;;;8.55;;
41233;SDS011;26968;42.686;23.352;2023-03-14T03:08:18;19.55;;;9.20;;
41233;SDS011;26968;42.686;23.352;2023-03-14T03:10:44;23.50;;;9.05;;
41233;SDS011;26968;42.686;23.352;2023-03-14T03:13:10;31.23;;;10.98;;
41233;SDS011;26968;42.686;23.352;2023-03-14T03:15:35;26.88;;;9.45;;
41233;SDS011;26968;42.686;23.352;2023-03-14T03:18:01;23.45;;;10.35;;
41233;SDS011;26968;42.686;23.352;2023-03-14T03:20:26;23.90;;;10.57;;
41233;SDS011;26968;42.686;23.352;2023-03-14T03:22:51;21.52;;;10.23;;
41233;SDS011;26968;42.686;23.352;2023-03-14T03:25:17;23.63;;;10.25;;
41233;SDS011;26968;42.686;23.352;2023-03-14T03:27:42;29.25;;;11.13;;
41233;SDS011;26968;42.686;23.352;2023-03-14T03:30:08;22.45;;;10.80;;
41233;SDS011;26968;42.686;23.352;2023-03-14T03:32:34;34.13;;;12.10;;
41233;SDS011;26968;42.686;23.352;2023-03-14T03:34:59;24.92;;;11.65;;
41233;SDS011;26968;42.686;23.352;2023-03-14T03:37:25;23.33;;;11.02;;
41233;SDS011;26968;42.686;23.352;2023-03-14T03:39:51;26.55;;;11.35;;
41233;SDS011;26968;42.686;23.352;2023-03-14T03:42:17;26.10;;;11.48;;
41233;SDS011;26968;42.686;23.352;2023-03-14T03:44:42;25.30;;;12.27;;
41233;SDS011;26968;42.686;23.352;2023-03-14T03:47:08;35.08;;;12.63;;
41233;SDS011;26968;42.686;23.352;2023-03-14T03:49:34;33.60;;;12.35;;
41233;SDS011;26968;42.686;23.352;2023-03-14T03:51:59;28.92;;;11.85;;
41233;SDS011;26968;42.686;23.352;2023-03-14T03:54:25;28.83;;;13.82;;
41233;SDS011;26968;42.686;23.352;2023-03-14T03:56:51;40.05;;;14.52;;
41233;SDS011;26968;42.686;23.352;2023-03-14T03:59:16;27.40;;;12.52;;
41233;SDS011;26968;42.686;23.352;2023-03-14T04:01:42;25.45;;;12.13;;
41233;SDS011;26968;42.686;23.352;2023-03-14T04:04:08;27.83;;;12.23;;
41233;SDS011;26968;42.686;23.352;2023-03-14T04:06:33;24.73;;;12.75;;
41233;SDS011;26968;42.686;23.352;2023-03-14T04:08:58;30.73;;;12.32;;
41233;SDS011;26968;42.686;23.352;2023-03-14T04:11:24;24.33;;;12.20;;
41233;SDS011;26968;42.686;23.352;2023-03-14T04:13:50;26.67;;;12.35;;
41233;SDS011;26968;42.686;23.352;2023-03-14T04:16:22;31.73;;;12.43;;
41233;SDS011;26968;42.686;23.352;2023-03-14T04:18:49;26.73;;;11.45;;
41233;SDS011;26968;42.686;23.352;2023-03-14T04:21:15;25.73;;;12.32;;
41233;SDS011;26968;42.686;23.352;2023-03-14T04:23:41;25.52;;;11.15;;
41233;SDS011;26968;42.686;23.352;2023-03-14T04:26:06;26.60;;;11.65;;
41233;SDS011;26968;42.686;23.352;2023-03-14T04:28:32;27.60;;;11.68;;
41233;SDS011;26968;42.686;23.352;2023-03-14T04:30:57;33.85;;;11.55;;
41233;SDS011;26968;42.686;23.352;2023-03-14T04:33:23;30.70;;;11.55;;
41233;SDS011;26968;42.686;23.352;2023-03-14T04:35:48;24.02;;;11.00;;
41233;SDS011;26968;42.686;23.352;2023-03-14T04:38:15;29.40;;;11.02;;
41233;SDS011;26968;42.686;23.352;2023-03-14T04:40:41;26.13;;;10.88;;
41233;SDS011;26968;42.686;23.352;2023-03-14T04:43:07;28.30;;;11.90;;
41233;SDS011;26968;42.686;23.352;2023-03-14T04:45:34;23.95;;;12.20;;
41233;SDS011;26968;42.686;23.352;2023-03-14T04:48:00;18.20;;;10.70;;
41233;SDS011;26968;42.686;23.352;2023-03-14T04:50:25;30.52;;;12.98;;
41233;SDS011;26968;42.686;23.352;2023-03-14T04:52:51;27.85;;;12.23;;
41233;SDS011;26968;42.686;23.352;2023-03-14T04:55:16;27.90;;;12.02;;
41233;SDS011;26968;42.686;23.352;2023-03-14T04:57:41;47.97;;;12.85;;
41233;SDS011;26968;42.686;23.352;2023-03-14T05:00:07;30.52;;;11.50;;
41233;SDS011;26968;42.686;23.352;2023-03-14T05:02:33;31.63;;;13.18;;
41233;SDS011;26968;42.686;23.352;2023-03-14T05:04:59;25.75;;;13.55;;
41233;SDS011;26968;42.686;23.352;2023-03-14T05:07:25;36.88;;;13.35;;
41233;SDS011;26968;42.686;23.352;2023-03-14T05:09:50;45.20;;;17.58;;
41233;SDS011;26968;42.686;23.352;2023-03-14T05:12:16;51.75;;;18.90;;
41233;SDS011;26968;42.686;23.352;2023-03-14T05:14:41;46.75;;;15.50;;
41233;SDS011;26968;42.686;23.352;2023-03-14T05:17:07;49.05;;;14.52;;
41233;SDS011;26968;42.686;23.352;2023-03-14T05:19:32;49.70;;;18.45;;
41233;SDS011;26968;42.686;23.352;2023-03-14T05:21:57;36.05;;;17.50;;
41233;SDS011;26968;42.686;23.352;2023-03-14T05:24:23;47.47;;;18.45;;
41233;SDS011;26968;42.686;23.352;2023-03-14T05:26:48;47.22;;;19.90;;
41233;SDS011;26968;42.686;23.352;2023-03-14T05:29:14;36.38;;;18.58;;
41233;SDS011;26968;42.686;23.352;2023-03-14T05:31:40;45.83;;;18.98;;
41233;SDS011;26968;42.686;23.352;2023-03-14T05:34:05;37.95;;;18.85;;
41233;SDS011;26968;42.686;23.352;2023-03-14T05:36:30;47.78;;;19.60;;
41233;SDS011;26968;42.686;23.352;2023-03-14T05:38:56;46.80;;;19.52;;
41233;SDS011;26968;42.686;23.352;2023-03-14T05:41:21;43.03;;;20.13;;
41233;SDS011;26968;42.686;23.352;2023-03-14T05:43:47;44.17;;;20.02;;
41233;SDS011;26968;42.686;23.352;2023-03-14T05:46:12;49.53;;;20.92;;
41233;SDS011;26968;42.686;23.352;2023-03-14T05:48:37;46.25;;;21.00;;
41233;SDS011;26968;42.686;23.352;2023-03-14T05:51:03;48.65;;;20.25;;
41233;SDS011;26968;42.686;23.352;2023-03-14T05:53:29;41.80;;;21.52;;
41233;SDS011;26968;42.686;23.352;2023-03-14T05:55:55;50.17;;;22.38;;
41233;SDS011;26968;42.686;23.352;2023-03-14T05:58:21;54.90;;;21.55;;
41233;SDS011;26968;42.686;23.352;2023-03-14T06:00:47;52.38;;;20.00;;
41233;SDS011;26968;42.686;23.352;2023-03-14T06:03:13;55.30;;;21.63;;
41233;SDS011;26968;42.686;23.352;2023-03-14T06:05:38;47.95;;;22.83;;
41233;SDS011;26968;42.686;23.352;2023-03-14T06:08:04;45.67;;;21.52;;
41233;SDS011;26968;42.686;23.352;2023-03-14T06:10:29;51.97;;;22.77;;
41233;SDS011;26968;42.686;23.352;2023-03-14T06:12:55;57.25;;;22.13;;
41233;SDS011;26968;42.686;23.352;2023-03-14T06:15:20;49.70;;;20.25;;
41233;SDS011;26968;42.686;23.352;2023-03-14T06:17:46;51.30;;;22.60;;
41233;SDS011;26968;42.686;23.352;2023-03-14T06:20:11;53.33;;;21.70;;
41233;SDS011;26968;42.686;23.352;2023-03-14T06:22:37;56.22;;;22.27;;
41233;SDS011;26968;42.686;23.352;2023-03-14T06:25:03;50.65;;;21.40;;
41233;SDS011;26968;42.686;23.352;2023-03-14T06:27:29;49.55;;;22.35;;
41233;SDS011;26968;42.686;23.352;2023-03-14T06:29:55;53.38;;;23.05;;
41233;SDS011;26968;42.686;23.352;2023-03-14T06:32:20;70.15;;;24.48;;
41233;SDS011;26968;42.686;23.352;2023-03-14T06:34:46;52.78;;;22.48;;
41233;SDS011;26968;42.686;23.352;2023-03-14T06:37:11;59.88;;;22.55;;
41233;SDS011;26968;42.686;23.352;2023-03-14T06:39:37;49.72;;;21.45;;
41233;SDS011;26968;42.686;23.352;2023-03-14T06:42:03;44.83;;;20.77;;
41233;SDS011;26968;42.686;23.352;2023-03-14T06:44:29;49.67;;;21.73;;
41233;SDS011;26968;42.686;23.352;2023-03-14T06:46:55;67.25;;;22.40;;
41233;SDS011;26968;42.686;23.352;2023-03-14T06:49:20;54.55;;;23.05;;
41233;SDS011;26968;42.686;23.352;2023-03-14T06:51:46;54.00;;;23.90;;
41233;SDS011;26968;42.686;23.352;2023-03-14T06:54:11;46.22;;;23.27;;
41233;SDS011;26968;42.686;23.352;2023-03-14T06:56:37;51.22;;;23.65;;
41233;SDS011;26968;42.686;23.352;2023-03-14T06:59:03;78.50;;;22.92;;
41233;SDS011;26968;42.686;23.352;2023-03-14T07:01:29;62.28;;;23.85;;
41233;SDS011;26968;42.686;23.352;2023-03-14T07:03:57;52.72;;;22.58;;
41233;SDS011;26968;42.686;23.352;2023-03-14T07:06:23;61.25;;;24.17;;
41233;SDS011;26968;42.686;23.352;2023-03-14T07:08:50;64.88;;;22.95;;
41233;SDS011;26968;42.686;23.352;2023-03-14T07:11:15;54.30;;;22.95;;
41233;SDS011;26968;42.686;23.352;2023-03-14T07:13:41;41.00;;;17.55;;
41233;SDS011;26968;42.686;23.352;2023-03-14T07:16:06;45.72;;;17.95;;
41233;SDS011;26968;42.686;23.352;2023-03-14T07:18:32;43.28;;;18.33;;
41233;SDS011;26968;42.686;23.352;2023-03-14T07:20:58;44.28;;;18.20;;
41233;SDS011;26968;42.686;23.352;2023-03-14T07:23:23;34.58;;;16.67;;
41233;SDS011;26968;42.686;23.352;2023-03-14T07:25:49;32.08;;;15.85;;
41233;SDS011;26968;42.686;23.352;2023-03-14T07:28:16;35.40;;;16.60;;
41233;SDS011;26968;42.686;23.352;2023-03-14T07:30:41;31.13;;;16.00;;
41233;SDS011;26968;42.686;23.352;2023-03-14T07:33:07;39.97;;;15.95;;
41233;SDS011;26968;42.686;23.352;2023-03-14T07:35:32;46.67;;;16.67;;
41233;SDS011;26968;42.686;23.352;2023-03-14T07:37:58;34.58;;;16.20;;
41233;SDS011;26968;42.686;23.352;2023-03-14T07:40:23;32.30;;;17.75;;
41233;SDS011;26968;42.686;23.352;2023-03-14T07:42:48;33.03;;;17.23;;
41233;SDS011;26968;42.686;23.352;2023-03-14T07:45:14;36.10;;;16.90;;
41233;SDS011;26968;42.686;23.352;2023-03-14T07:47:42;36.25;;;16.20;;
41233;SDS011;26968;42.686;23.352;2023-03-14T07:50:08;29.05;;;14.32;;
41233;SDS011;26968;42.686;23.352;2023-03-14T07:52:34;39.17;;;15.10;;
41233;SDS011;26968;42.686;23.352;2023-03-14T07:54:59;32.50;;;14.43;;
41233;SDS011;26968;42.686;23.352;2023-03-14T07:57:28;31.25;;;14.77;;
41233;SDS011;26968;42.686;23.352;2023-03-14T07:59:59;30.35;;;13.10;;
41233;SDS011;26968;42.686;23.352;2023-03-14T08:02:24;29.50;;;12.48;;
41233;SDS011;26968;42.686;23.352;2023-03-14T08:04:50;37.03;;;14.30;;
41233;SDS011;26968;42.686;23.352;2023-03-14T08:07:15;36.35;;;16.27;;
41233;SDS011;26968;42.686;23.352;2023-03-14T08:09:41;27.83;;;12.07;;
41233;SDS011;26968;42.686;23.352;2023-03-14T08:12:07;25.20;;;12.05;;
41233;SDS011;26968;42.686;23.352;2023-03-14T08:14:34;27.52;;;12.52;;
41233;SDS011;26968;42.686;23.352;2023-03-14T08:16:59;25.33;;;11.95;;
41233;SDS011;26968;42.686;23.352;2023-03-14T08:19:24;32.85;;;13.23;;
41233;SDS011;26968;42.686;23.352;2023-03-14T08:21:50;24.65;;;11.98;;
41233;SDS011;26968;42.686;23.352;2023-03-14T08:24:15;23.73;;;11.70;;
41233;SDS011;26968;42.686;23.352;2023-03-14T08:26:41;29.20;;;11.88;;
41233;SDS011;26968;42.686;23.352;2023-03-14T08:29:06;19.35;;;10.73;;
41233;SDS011;26968;42.686;23.352;2023-03-14T08:31:33;24.58;;;11.88;;
41233;SDS011;26968;42.686;23.352;2023-03-14T08:34:00;24.60;;;10.48;;
41233;SDS011;26968;42.686;23.352;2023-03-14T08:36:26;22.83;;;10.88;;
41233;SDS011;26968;42.686;23.352;2023-03-14T08:38:52;26.08;;;10.43;;
41233;SDS011;26968;42.686;23.352;2023-03-14T08:41:17;17.80;;;10.70;;
41233;SDS011;26968;42.686;23.352;2023-03-14T08:43:43;17.92;;;8.35;;
41233;SDS011;26968;42.686;23.352;2023-03-14T08:46:08;20.50;;;9.93;;
41233;SDS011;26968;42.686;23.352;2023-03-14T08:48:33;20.10;;;9.68;;
41233;SDS011;26968;42.686;23.352;2023-03-14T08:51:06;23.00;;;9.93;;
41233;SDS011;26968;42.686;23.352;2023-03-14T08:53:38;23.95;;;9.63;;
41233;SDS011;26968;42.686;23.352;2023-03-14T08:56:03;19.17;;;9.82;;
41233;SDS011;26968;42.686;23.352;2023-03-14T08:58:31;15.23;;;9.23;;
41233;SDS011;26968;42.686;23.352;2023-03-14T09:00:57;15.02;;;8.18;;
41233;SDS011;26968;42.686;23.352;2023-03-14T09:03:23;23.88;;;8.68;;
41233;SDS011;26968;42.686;23.352;2023-03-14T09:05:49;13.90;;;8.15;;
41233;SDS011;26968;42.686;23.352;2023-03-14T09:08:15;14.23;;;8.07;;
41233;SDS011;26968;42.686;23.352;2023-03-14T09:10:40;11.75;;;6.80;;
41233;SDS011;26968;42.686;23.352;2023-03-14T09:13:05;16.25;;;7.20;;
41233;SDS011;26968;42.686;23.352;2023-03-14T09:15:31;13.27;;;7.75;;
41233;SDS011;26968;42.686;23.352;2023-03-14T09:17:57;19.80;;;8.13;;
41233;SDS011;26968;42.686;23.352;2023-03-14T09:20:23;23.08;;;8.88;;
41233;SDS011;26968;42.686;23.352;2023-03-14T09:22:48;15.95;;;9.15;;
41233;SDS011;26968;42.686;23.352;2023-03-14T09:25:13;14.30;;;7.70;;
41233;SDS011;26968;42.686;23.352;2023-03-14T09:27:39;15.50;;;7.60;;
41233;SDS011;26968;42.686;23.352;2023-03-14T09:30:04;13.98;;;7.22;;
41233;SDS011;26968;42.686;23.352;2023-03-14T09:32:30;12.20;;;7.32;;
41233;SDS011;26968;42.686;23.352;2023-03-14T09:34:59;19.63;;;7.88;;
41233;SDS011;26968;42.686;23.352;2023-03-14T09:37:24;19.40;;;9.40;;
41233;SDS011;26968;42.686;23.352;2023-03-14T09:39:50;16.15;;;7.25;;
41233;SDS011;26968;42.686;23.352;2023-03-14T09:42:18;16.13;;;6.75;;
41233;SDS011;26968;42.686;23.352;2023-03-14T09:44:59;14.10;;;6.40;;
41233;SDS011;26968;42.686;23.352;2023-03-14T09:47:47;15.65;;;7.88;;
41233;SDS011;26968;42.686;23.352;2023-03-14T09:50:13;14.55;;;7.15;;
41233;SDS011;26968;42.686;23.352;2023-03-14T09:52:42;17.23;;;8.35;;
41233;SDS011;26968;42.686;23.352;2023-03-14T09:55:16;21.02;;;9.13;;
41233;SDS011;26968;42.686;23.352;2023-03-14T09:57:46;13.15;;;7.75;;
41233;SDS011;26968;42.686;23.352;2023-03-14T10:00:15;16.70;;;7.60;;
41233;SDS011;26968;42.686;23.352;2023-03-14T10:02:43;21.70;;;8.85;;
41233;SDS011;26968;42.686;23.352;2023-03-14T10:05:20;24.13;;;8.82;;
41233;SDS011;26968;42.686;23.352;2023-03-14T10:07:47;28.85;;;8.45;;
41233;SDS011;26968;42.686;23.352;2023-03-14T10:10:17;18.75;;;7.95;;
41233;SDS011;26968;42.686;23.352;2023-03-14T10:12:45;18.05;;;9.10;;
41233;SDS011;26968;42.686;23.352;2023-03-14T10:15:13;22.88;;;9.18;;
41233;SDS011;26968;42.686;23.352;2023-03-14T10:17:49;14.63;;;8.18;;
41233;SDS011;26968;42.686;23.352;2023-03-14T10:25:33;14.85;;;7.82;;
41233;SDS011;26968;42.686;23.352;2023-03-14T10:28:00;12.50;;;7.00;;
41233;SDS011;26968;42.686;23.352;2023-03-14T10:33:07;14.77;;;7.30;;
41233;SDS011;26968;42.686;23.352;2023-03-14T10:35:34;12.60;;;6.43;;
41233;SDS011;26968;42.686;23.352;2023-03-14T10:38:01;13.13;;;6.53;;
41233;SDS011;26968;42.686;23.352;2023-03-14T10:40:33;13.75;;;6.35;;
41233;SDS011;26968;42.686;23.352;2023-03-14T10:43:03;11.55;;;5.82;;
41233;SDS011;26968;42.686;23.352;2023-03-14T10:48:45;9.40;;;5.43;;
41233;SDS011;26968;42.686;23.352;2023-03-14T10:53:47;14.77;;;4.88;;
41233;SDS011;26968;42.686;23.352;2023-03-14T10:56:24;14.15;;;5.20;;
41233;SDS011;26968;42.686;23.352;2023-03-14T10:58:51;13.23;;;4.97;;
41233;SDS011;26968;42.686;23.352;2023-03-14T11:01:26;9.75;;;5.30;;
41233;SDS011;26968;42.686;23.352;2023-03-14T11:06:50;9.15;;;4.95;;
41233;SDS011;26968;42.686;23.352;2023-03-14T11:15:25;5.13;;;3.95;;
41233;SDS011;26968;42.686;23.352;2023-03-14T11:18:02;8.73;;;4.18;;
41233;SDS011;26968;42.686;23.352;2023-03-14T11:23:21;13.02;;;4.72;;
41233;SDS011;26968;42.686;23.352;2023-03-14T11:25:56;12.73;;;4.90;;
41233;SDS011;26968;42.686;23.352;2023-03-14T11:31:16;7.75;;;4.20;;
41233;SDS011;26968;42.686;23.352;2023-03-14T11:34:15;9.63;;;3.90;;
41233;SDS011;26968;42.686;23.352;2023-03-14T11:39:18;10.40;;;3.97;;
41233;SDS011;26968;42.686;23.352;2023-03-14T11:41:51;6.97;;;3.00;;
41233;SDS011;26968;42.686;23.352;2023-03-14T11:44:20;6.75;;;2.95;;
41233;SDS011;26968;42.686;23.352;2023-03-14T11:46:48;10.55;;;3.72;;
41233;SDS011;26968;42.686;23.352;2023-03-14T11:52:27;14.55;;;4.65;;
41233;SDS011;26968;42.686;23.352;2023-03-14T11:57:28;9.85;;;4.25;;
41233;SDS011;26968;42.686;23.352;2023-03-14T12:00:13;12.40;;;4.25;;
41233;SDS011;26968;42.686;23.352;2023-03-14T12:14:16;6.20;;;3.42;;
41233;SDS011;26968;42.686;23.352;2023-03-14T12:19:47;8.05;;;2.90;;
41233;SDS011;26968;42.686;23.352;2023-03-14T12:22:44;7.03;;;2.67;;
41233;SDS011;26968;42.686;23.352;2023-03-14T12:35:44;6.95;;;2.85;;
41233;SDS011;26968;42.686;23.352;2023-03-14T12:40:40;5.97;;;2.78;;
41233;SDS011;26968;42.686;23.352;2023-03-14T12:43:25;10.43;;;2.60;;
41233;SDS011;26968;42.686;23.352;2023-03-14T12:46:42;6.05;;;2.75;;
41233;SDS011;26968;42.686;23.352;2023-03-14T12:48:55;4.78;;;2.40;;
41233;SDS011;26968;42.686;23.352;2023-03-14T12:59:52;8.00;;;2.80;;
41233;SDS011;26968;42.686;23.352;2023-03-14T13:05:19;4.30;;;2.88;;
41233;SDS011;26968;42.686;23.352;2023-03-14T13:15:46;5.57;;;2.35;;
41233;SDS011;26968;42.686;23.352;2023-03-14T13:21:33;15.60;;;2.97;;
41233;SDS011;26968;42.686;23.352;2023-03-14T13:24:03;6.07;;;2.20;;
41233;SDS011;26968;42.686;23.352;2023-03-14T13:26:40;6.53;;;2.45;;
41233;SDS011;26968;42.686;23.352;2023-03-14T13:31:54;5.10;;;2.30;;
41233;SDS011;26968;42.686;23.352;2023-03-14T13:34:31;6.05;;;2.30;;
41233;SDS011;26968;42.686;23.352;2023-03-14T13:36:59;4.18;;;2.50;;
41233;SDS011;26968;42.686;23.352;2023-03-14T13:39:26;5.85;;;2.28;;
41233;SDS011;26968;42.686;23.352;2023-03-14T13:41:54;5.18;;;2.00;;
41233;SDS011;26968;42.686;23.352;2023-03-14T13:44:37;2.95;;;1.70;;
41233;SDS011;26968;42.686;23.352;2023-03-14T13:47:06;4.43;;;2.03;;
41233;SDS011;26968;42.686;23.352;2023-03-14T13:49:39;5.75;;;2.00;;
41233;SDS011;26968;42.686;23.352;2023-03-14T13:54:56;5.38;;;2.35;;
41233;SDS011;26968;42.686;23.352;2023-03-14T13:57:25;4.38;;;1.98;;
41233;SDS011;26968;42.686;23.352;2023-03-14T14:00:00;6.60;;;2.35;;
41233;SDS011;26968;42.686;23.352;2023-03-14T14:02:36;4.85;;;2.55;;
41233;SDS011;26968;42.686;23.352;2023-03-14T14:05:06;6.60;;;2.58;;
41233;SDS011;26968;42.686;23.352;2023-03-14T14:07:35;6.00;;;2.35;;
41233;SDS011;26968;42.686;23.352;2023-03-14T14:10:02;4.70;;;2.55;;
41233;SDS011;26968;42.686;23.352;2023-03-14T14:12:39;5.20;;;2.90;;
41233;SDS011;26968;42.686;23.352;2023-03-14T14:15:31;10.07;;;2.45;;
41233;SDS011;26968;42.686;23.352;2023-03-14T14:18:07;3.88;;;2.30;;
41233;SDS011;26968;42.686;23.352;2023-03-14T14:20:38;4.97;;;2.50;;
41233;SDS011;26968;42.686;23.352;2023-03-14T14:23:10;5.13;;;2.03;;
41233;SDS011;26968;42.686;23.352;2023-03-14T14:25:37;4.70;;;2.40;;
41233;SDS011;26968;42.686;23.352;2023-03-14T14:30:46;3.58;;;2.20;;
41233;SDS011;26968;42.686;23.352;2023-03-14T14:33:30;4.35;;;2.22;;
41233;SDS011;26968;42.686;23.352;2023-03-14T14:36:14;3.35;;;1.92;;
41233;SDS011;26968;42.686;23.352;2023-03-14T14:38:51;3.55;;;2.17;;
41233;SDS011;26968;42.686;23.352;2023-03-14T14:41:27;4.05;;;2.17;;
41233;SDS011;26968;42.686;23.352;2023-03-14T14:43:55;5.07;;;2.30;;
41233;SDS011;26968;42.686;23.352;2023-03-14T14:46:22;5.03;;;2.38;;
41233;SDS011;26968;42.686;23.352;2023-03-14T14:48:55;4.63;;;2.22;;
41233;SDS011;26968;42.686;23.352;2023-03-14T14:51:24;3.33;;;1.90;;
41233;SDS011;26968;42.686;23.352;2023-03-14T14:54:12;4.65;;;2.72;;
41233;SDS011;26968;42.686;23.352;2023-03-14T14:57:01;9.07;;;2.22;;
41233;SDS011;26968;42.686;23.352;2023-03-14T14:59:31;8.10;;;2.30;;
41233;SDS011;26968;42.686;23.352;2023-03-14T15:02:09;6.18;;;2.55;;
41233;SDS011;26968;42.686;23.352;2023-03-14T15:05:12;9.43;;;2.30;;
41233;SDS011;26968;42.686;23.352;2023-03-14T15:07:40;8.85;;;2.92;;
41233;SDS011;26968;42.686;23.352;2023-03-14T15:10:11;5.78;;;3.22;;
41233;SDS011;26968;42.686;23.352;2023-03-14T15:12:39;6.50;;;3.58;;
41233;SDS011;26968;42.686;23.352;2023-03-14T15:15:06;5.40;;;2.35;;
41233;SDS011;26968;42.686;23.352;2023-03-14T15:17:33;5.93;;;2.92;;
41233;SDS011;26968;42.686;23.352;2023-03-14T15:20:01;10.95;;;2.88;;
41233;SDS011;26968;42.686;23.352;2023-03-14T15:22:29;10.52;;;3.03;;
41233;SDS011;26968;42.686;23.352;2023-03-14T15:24:58;6.57;;;2.47;;
41233;SDS011;26968;42.686;23.352;2023-03-14T15:27:25;5.75;;;2.13;;
41233;SDS011;26968;42.686;23.352;2023-03-14T15:29:54;6.65;;;2.70;;
41233;SDS011;26968;42.686;23.352;2023-03-14T15:32:23;9.57;;;2.67;;
41233;SDS011;26968;42.686;23.352;2023-03-14T15:34:52;8.90;;;2.83;;
41233;SDS011;26968;42.686;23.352;2023-03-14T15:37:20;8.00;;;3.03;;
41233;SDS011;26968;42.686;23.352;2023-03-14T15:39:48;10.27;;;2.72;;
41233;SDS011;26968;42.686;23.352;2023-03-14T15:42:14;15.13;;;3.35;;
41233;SDS011;26968;42.686;23.352;2023-03-14T15:44:40;9.68;;;3.08;;
41233;SDS011;26968;42.686;23.352;2023-03-14T15:47:08;4.47;;;2.80;;
41233;SDS011;26968;42.686;23.352;2023-03-14T15:49:35;11.77;;;3.00;;
41233;SDS011;26968;42.686;23.352;2023-03-14T15:52:01;5.80;;;3.35;;
41233;SDS011;26968;42.686;23.352;2023-03-14T15:54:28;10.75;;;2.92;;
41233;SDS011;26968;42.686;23.352;2023-03-14T15:56:55;9.05;;;3.20;;
41233;SDS011;26968;42.686;23.352;2023-03-14T15:59:22;5.65;;;3.40;;
41233;SDS011;26968;42.686;23.352;2023-03-14T16:01:48;12.07;;;3.33;;
41233;SDS011;26968;42.686;23.352;2023-03-14T16:04:15;7.18;;;3.88;;
41233;SDS011;26968;42.686;23.352;2023-03-14T16:06:42;9.75;;;4.10;;
41233;SDS011;26968;42.686;23.352;2023-03-14T16:09:09;15.18;;;3.90;;